createdAt,value
2022-11-27T00:01:32.885Z,101184.22
2022-11-27T00:04:00.708Z,101187.59
2022-11-27T00:06:30.219Z,100954.94
2022-11-27T00:08:59.251Z,101194.69
2022-11-27T00:11:27.983Z,101178.91
2022-11-27T00:13:56.060Z,101194.81
2022-11-27T00:16:24.617Z,101195.59
2022-11-27T00:18:52.618Z,100943.00
2022-11-27T00:21:27.199Z,101183.03
2022-11-27T00:23:56.412Z,101193.69
2022-11-27T00:26:24.366Z,101185.06
2022-11-27T00:28:53.000Z,101196.91
2022-11-27T00:31:29.670Z,101190.72
2022-11-27T00:34:03.674Z,101190.97
2022-11-27T00:36:33.363Z,101184.06
2022-11-27T00:39:00.960Z,101192.78
2022-11-27T00:41:30.458Z,101188.19
2022-11-27T00:43:58.431Z,100953.56
2022-11-27T00:46:30.632Z,101060.22
2022-11-27T00:48:59.856Z,101207.97
2022-11-27T00:51:29.060Z,101187.06
2022-11-27T00:53:57.143Z,101188.28
2022-11-27T00:56:27.250Z,101177.31
2022-11-27T00:58:55.370Z,101186.69
2022-11-27T01:01:26.322Z,101179.25
2022-11-27T01:03:55.851Z,101187.69
2022-11-27T01:06:26.242Z,101188.84
2022-11-27T01:08:54.492Z,101140.25
2022-11-27T01:11:28.156Z,101185.16
2022-11-27T01:13:57.274Z,101185.69
2022-11-27T01:16:27.361Z,101167.38
2022-11-27T01:18:58.304Z,101193.97
2022-11-27T01:21:29.466Z,101186.22
2022-11-27T01:23:56.949Z,101182.75
2022-11-27T01:26:25.194Z,101036.50
2022-11-27T01:28:54.229Z,101085.91
2022-11-27T01:31:28.770Z,101144.06
2022-11-27T01:33:59.598Z,101157.06
2022-11-27T01:36:27.979Z,101180.34
2022-11-27T01:38:56.271Z,101069.22
2022-11-27T01:41:34.413Z,101174.00
2022-11-27T01:44:23.778Z,101175.69
2022-11-27T01:46:57.050Z,101177.78
2022-11-27T01:49:51.031Z,101180.97
2022-11-27T01:52:28.268Z,101185.94
2022-11-27T01:55:01.153Z,101145.03
2022-11-27T01:58:07.703Z,101109.50
2022-11-27T02:00:35.609Z,101190.22
2022-11-27T02:03:03.010Z,101156.72
2022-11-27T02:05:31.747Z,101204.97
2022-11-27T02:08:01.640Z,101184.56
2022-11-27T02:10:47.308Z,101100.03
2022-11-27T02:13:18.857Z,101051.97
2022-11-27T02:16:18.257Z,101194.19
2022-11-27T02:19:08.099Z,101174.16
2022-11-27T02:21:52.481Z,101069.44
2022-11-27T02:24:29.097Z,101189.22
2022-11-27T02:27:22.393Z,101200.63
2022-11-27T02:29:57.095Z,101190.34
2022-11-27T02:32:35.568Z,101193.47
2022-11-27T02:35:18.784Z,101207.06
2022-11-27T02:37:58.211Z,101201.22
2022-11-27T02:40:38.947Z,101168.97
2022-11-27T02:43:12.070Z,101204.13
2022-11-27T02:45:44.288Z,101079.00
2022-11-27T02:48:13.918Z,101208.53
2022-11-27T02:50:45.155Z,101212.88
2022-11-27T02:53:24.141Z,101210.88
2022-11-27T02:55:53.621Z,101194.88
2022-11-27T02:58:26.696Z,101204.44
2022-11-27T03:00:56.171Z,101077.50
2022-11-27T03:03:32.530Z,101211.03
2022-11-27T03:06:06.876Z,101212.53
2022-11-27T03:08:57.757Z,101214.03
2022-11-27T03:11:27.127Z,101211.63
2022-11-27T03:13:57.087Z,101216.72
2022-11-27T03:17:09.394Z,101214.53
2022-11-27T03:19:45.995Z,101224.09
2022-11-27T03:22:13.775Z,101215.38
2022-11-27T03:24:41.554Z,101076.25
2022-11-27T03:27:12.564Z,101209.78
2022-11-27T03:29:46.346Z,101194.84
2022-11-27T03:32:14.502Z,101222.75
2022-11-27T03:34:42.915Z,101215.75
2022-11-27T03:37:11.083Z,101210.53
2022-11-27T03:39:39.141Z,101217.53
2022-11-27T03:42:31.062Z,101213.28
2022-11-27T03:45:01.345Z,101215.66
2022-11-27T03:47:58.718Z,101219.31
2022-11-27T03:50:55.234Z,101210.25
2022-11-27T03:53:49.680Z,101209.28
2022-11-27T03:56:38.804Z,101207.53
2022-11-27T03:59:14.363Z,101109.75
2022-11-27T04:01:42.675Z,101192.28
2022-11-27T04:04:10.025Z,101202.13
2022-11-27T04:06:37.763Z,101105.44
2022-11-27T04:09:05.812Z,101095.59
2022-11-27T04:11:33.045Z,101201.47
2022-11-27T04:14:00.591Z,101206.22
2022-11-27T04:16:28.497Z,101203.59
2022-11-27T04:18:55.755Z,101198.34
2022-11-27T04:21:23.654Z,101215.66
2022-11-27T04:23:50.999Z,101212.97
2022-11-27T04:26:18.498Z,101201.69
2022-11-27T04:28:46.216Z,101220.84
2022-11-27T04:31:13.734Z,101205.00
2022-11-27T04:33:41.046Z,101212.75
2022-11-27T04:36:08.964Z,101135.03
2022-11-27T04:38:36.691Z,101211.25
2022-11-27T04:41:04.004Z,101026.38
2022-11-27T04:43:31.951Z,101204.25
2022-11-27T04:46:01.013Z,101212.41
2022-11-27T04:48:28.365Z,101219.44
2022-11-27T04:50:56.466Z,101228.97
2022-11-27T04:53:23.953Z,101108.16
2022-11-27T04:55:52.529Z,101228.06
2022-11-27T04:58:20.179Z,101213.31
2022-11-27T05:00:47.736Z,101204.88
2022-11-27T05:03:16.330Z,101228.50
2022-11-27T05:05:43.997Z,101230.53
2022-11-27T05:08:11.668Z,101228.06
2022-11-27T05:10:39.814Z,101101.84
2022-11-27T05:13:07.802Z,101229.19
2022-11-27T05:15:35.210Z,101229.31
2022-11-27T05:18:02.581Z,101227.59
2022-11-27T05:20:30.735Z,101233.81
2022-11-27T05:22:58.063Z,101170.31
2022-11-27T05:25:25.321Z,101152.25
2022-11-27T05:27:53.694Z,101234.69
2022-11-27T05:30:21.058Z,101234.44
2022-11-27T05:32:48.332Z,101235.75
2022-11-27T05:35:16.175Z,101063.50
2022-11-27T05:37:43.576Z,101237.28
2022-11-27T05:40:11.065Z,101236.16
2022-11-27T05:42:39.105Z,101228.53
2022-11-27T05:45:07.257Z,101202.25
2022-11-27T05:47:34.569Z,101233.91
2022-11-27T05:50:02.597Z,101056.56
2022-11-27T05:52:30.648Z,101240.34
2022-11-27T05:54:57.983Z,101236.75
2022-11-27T05:57:26.615Z,101246.31
2022-11-27T05:59:54.583Z,101233.50
2022-11-27T06:02:27.863Z,101059.75
2022-11-27T06:04:56.845Z,101242.50
2022-11-27T06:07:24.679Z,101165.44
2022-11-27T06:09:52.038Z,101242.28
2022-11-27T06:12:19.947Z,101251.09
2022-11-27T06:14:47.359Z,101244.88
2022-11-27T06:17:16.682Z,101137.41
2022-11-27T06:19:44.521Z,101173.88
2022-11-27T06:22:11.866Z,101135.81
2022-11-27T06:24:41.280Z,101228.06
2022-11-27T06:27:09.301Z,101197.59
2022-11-27T06:29:38.469Z,101215.00
2022-11-27T06:32:06.696Z,101246.81
2022-11-27T06:34:34.593Z,101243.69
2022-11-27T06:37:02.002Z,101245.47
2022-11-27T06:39:29.474Z,101118.25
2022-11-27T06:41:57.495Z,101244.53
2022-11-27T06:44:25.175Z,101251.53
2022-11-27T06:46:53.859Z,101246.28
2022-11-27T06:49:21.637Z,101247.84
2022-11-27T06:51:50.497Z,101251.38
2022-11-27T06:54:17.936Z,101246.88
2022-11-27T06:56:45.691Z,101254.16
2022-11-27T06:59:14.735Z,101253.69
2022-11-27T07:01:43.093Z,101259.38
2022-11-27T07:04:12.625Z,101206.16
2022-11-27T07:06:40.932Z,101263.09
2022-11-27T07:09:08.904Z,101264.84
2022-11-27T07:11:38.781Z,101262.91
2022-11-27T07:14:06.727Z,101279.56
2022-11-27T07:16:36.550Z,101266.16
2022-11-27T07:19:07.919Z,101251.09
2022-11-27T07:21:37.409Z,101271.44
2022-11-27T07:24:04.916Z,101267.03
2022-11-27T07:26:33.048Z,101259.34
2022-11-27T07:29:00.746Z,101164.47
2022-11-27T07:31:30.494Z,101262.53
2022-11-27T07:33:58.687Z,101261.75
2022-11-27T07:36:29.072Z,101251.78
2022-11-27T07:38:56.872Z,101255.63
2022-11-27T07:41:29.148Z,101152.91
2022-11-27T07:44:00.179Z,101248.72
2022-11-27T07:46:28.527Z,101250.69
2022-11-27T07:48:55.867Z,101234.31
2022-11-27T07:51:23.239Z,101255.31
2022-11-27T07:53:52.196Z,101226.09
2022-11-27T07:56:20.338Z,101252.09
2022-11-27T07:58:48.343Z,101260.00
2022-11-27T08:01:18.270Z,101252.88
2022-11-27T08:03:45.739Z,101253.63
2022-11-27T08:06:21.763Z,101253.88
2022-11-27T08:08:49.433Z,101239.00
2022-11-27T08:11:19.215Z,101248.59
2022-11-27T08:13:47.173Z,101241.41
2022-11-27T08:16:15.047Z,101247.69
2022-11-27T08:18:42.731Z,101254.19
2022-11-27T08:21:10.504Z,101242.84
2022-11-27T08:23:38.046Z,101252.53
2022-11-27T08:26:07.795Z,101258.72
2022-11-27T08:28:35.917Z,101256.06
2022-11-27T08:31:06.029Z,101241.91
2022-11-27T08:33:33.813Z,101248.22
2022-11-27T08:36:01.699Z,101239.63
2022-11-27T08:38:29.286Z,101252.00
2022-11-27T08:40:56.921Z,101240.38
2022-11-27T08:43:25.053Z,101251.09
2022-11-27T08:45:53.005Z,101246.06
2022-11-27T08:48:21.305Z,101240.28
2022-11-27T08:50:50.213Z,101240.53
2022-11-27T08:53:18.490Z,101130.00
2022-11-27T08:55:46.187Z,101243.16
2022-11-27T08:58:13.895Z,101237.16
2022-11-27T09:00:42.130Z,101247.63
2022-11-27T09:03:12.587Z,101253.84
2022-11-27T09:05:44.701Z,101242.94
2022-11-27T09:08:16.565Z,101254.44
2022-11-27T09:10:44.121Z,101226.84
2022-11-27T09:13:11.674Z,101252.50
2022-11-27T09:15:39.889Z,101247.47
2022-11-27T09:18:07.559Z,101249.09
2022-11-27T09:20:35.191Z,101244.78
2022-11-27T09:23:02.711Z,101241.47
2022-11-27T09:25:30.228Z,101245.88
2022-11-27T09:27:57.938Z,101236.31
2022-11-27T09:30:25.331Z,101243.28
2022-11-27T09:32:53.254Z,101224.25
2022-11-27T09:35:21.457Z,101233.75
2022-11-27T09:37:48.953Z,101128.97
2022-11-27T09:40:17.816Z,101229.59
2022-11-27T09:42:54.745Z,101192.72
2022-11-27T09:45:23.317Z,101220.81
2022-11-27T09:47:56.050Z,101246.09
2022-11-27T09:50:29.015Z,101234.00
2022-11-27T09:53:11.450Z,101224.25
2022-11-27T09:55:44.605Z,101233.31
2022-11-27T09:58:21.296Z,101232.50
2022-11-27T10:00:48.790Z,101235.41
2022-11-27T10:03:26.357Z,101240.91
2022-11-27T10:06:12.623Z,101242.72
2022-11-27T10:09:12.954Z,101241.63
2022-11-27T10:12:06.555Z,101240.91
2022-11-27T10:14:41.126Z,101137.53
2022-11-27T10:17:20.555Z,101194.31
2022-11-27T10:20:12.164Z,101229.19
2022-11-27T10:23:10.405Z,101227.63
2022-11-27T10:25:47.270Z,101232.00
2022-11-27T10:28:37.989Z,101236.41
2022-11-27T10:31:15.162Z,101237.09
2022-11-27T10:33:56.558Z,101241.19
2022-11-27T10:36:39.586Z,101210.97
2022-11-27T10:39:16.140Z,101242.00
2022-11-27T10:41:54.470Z,101242.91
2022-11-27T10:44:32.758Z,101235.16
2022-11-27T10:47:04.671Z,101245.66
2022-11-27T10:49:40.148Z,101152.38
2022-11-27T10:52:15.189Z,101247.91
2022-11-27T10:54:44.278Z,101241.56
2022-11-27T10:57:39.148Z,101248.25
2022-11-27T11:00:15.096Z,101249.31
2022-11-27T11:02:42.876Z,101171.63
2022-11-27T11:05:51.104Z,101255.13
2022-11-27T11:08:18.558Z,101167.13
2022-11-27T11:10:51.607Z,101247.53
2022-11-27T11:13:22.280Z,101250.13
2022-11-27T11:15:57.468Z,101249.09
2022-11-27T11:18:41.718Z,101247.28
2022-11-27T11:21:39.834Z,101250.63
2022-11-27T11:24:08.322Z,101237.47
2022-11-27T11:26:59.230Z,101232.75
2022-11-27T11:29:36.400Z,101256.47
2022-11-27T11:32:25.849Z,101245.88
2022-11-27T11:35:04.117Z,101243.28
2022-11-27T11:37:38.701Z,101231.97
2022-11-27T11:40:21.411Z,101246.81
2022-11-27T11:43:01.050Z,101246.66
2022-11-27T11:45:32.894Z,101169.28
2022-11-27T11:48:23.505Z,101106.44
2022-11-27T11:51:18.130Z,101235.84
2022-11-27T11:53:58.935Z,101247.19
2022-11-27T11:56:35.784Z,101209.34
2022-11-27T11:59:22.033Z,101263.69
2022-11-27T12:01:54.721Z,101249.44
2022-11-27T12:04:40.341Z,101262.22
2022-11-27T12:07:26.137Z,101256.84
2022-11-27T12:10:14.496Z,101260.06
2022-11-27T12:13:05.341Z,101268.53
2022-11-27T12:15:41.186Z,101263.41
2022-11-27T12:18:21.352Z,101265.97
2022-11-27T12:21:16.867Z,101197.72
2022-11-27T12:24:13.259Z,101272.38
2022-11-27T12:26:53.111Z,101282.63
2022-11-27T12:29:29.993Z,101278.34
2022-11-27T12:32:15.674Z,101279.31
2022-11-27T12:35:14.148Z,101286.97
2022-11-27T12:37:56.544Z,101284.19
2022-11-27T12:40:56.180Z,101275.56
2022-11-27T12:43:29.100Z,101259.66
2022-11-27T12:46:28.633Z,101276.34
2022-11-27T12:49:10.627Z,101291.34
2022-11-27T12:51:46.637Z,101214.59
2022-11-27T12:54:29.525Z,101213.88
2022-11-27T12:57:00.834Z,101302.69
2022-11-27T12:59:37.162Z,101302.59
2022-11-27T13:02:11.469Z,101302.59
2022-11-27T13:04:50.777Z,101304.59
2022-11-27T13:07:31.240Z,101294.81
2022-11-27T13:10:27.555Z,101293.66
2022-11-27T13:13:06.499Z,101281.97
2022-11-27T13:16:05.208Z,101286.09
2022-11-27T13:18:40.136Z,101295.03
2022-11-27T13:21:23.824Z,101297.72
2022-11-27T13:23:51.853Z,101291.47
2022-11-27T13:26:34.545Z,101281.53
2022-11-27T13:29:27.913Z,101284.94
2022-11-27T13:32:01.120Z,101283.22
2022-11-27T13:34:31.531Z,101290.56
2022-11-27T13:37:05.884Z,101270.47
2022-11-27T13:39:36.622Z,101284.56
2022-11-27T13:42:18.556Z,101295.22
2022-11-27T13:44:57.953Z,101200.91
2022-11-27T13:47:28.691Z,101273.84
2022-11-27T13:50:05.874Z,101285.16
2022-11-27T13:52:34.326Z,101303.50
2022-11-27T13:55:05.663Z,101173.47
2022-11-27T13:57:36.790Z,101257.63
2022-11-27T14:00:13.964Z,101296.16
2022-11-27T14:02:46.276Z,101297.03
2022-11-27T14:05:19.407Z,101302.31
2022-11-27T14:07:53.778Z,101295.97
2022-11-27T14:10:30.159Z,101300.09
2022-11-27T14:13:05.280Z,101296.25
2022-11-27T14:15:37.304Z,101281.69
2022-11-27T14:18:22.577Z,101307.97
2022-11-27T14:20:55.955Z,101306.38
2022-11-27T14:23:48.950Z,101305.41
2022-11-27T14:26:16.972Z,101093.16
2022-11-27T14:28:48.814Z,101220.31
2022-11-27T14:31:43.561Z,101289.56
2022-11-27T14:34:33.548Z,101209.69
2022-11-27T14:37:01.716Z,101172.91
2022-11-27T14:39:34.688Z,101305.28
2022-11-27T14:42:08.437Z,101302.72
2022-11-27T14:44:36.213Z,101311.63
2022-11-27T14:47:08.586Z,101322.06
2022-11-27T14:49:36.627Z,101303.41
2022-11-27T14:52:13.606Z,101306.00
2022-11-27T14:54:42.225Z,101171.16
2022-11-27T14:57:17.997Z,101304.91
2022-11-27T14:59:45.711Z,101307.44
2022-11-27T15:02:13.073Z,101306.44
2022-11-27T15:04:42.574Z,101300.22
2022-11-27T15:07:16.230Z,101309.91
2022-11-27T15:09:53.754Z,101306.50
2022-11-27T15:12:33.563Z,101045.66
2022-11-27T15:15:08.468Z,101288.22
2022-11-27T15:17:39.993Z,101277.28
2022-11-27T15:20:34.527Z,101299.44
2022-11-27T15:23:03.039Z,101303.94
2022-11-27T15:25:34.969Z,101297.97
2022-11-27T15:28:03.660Z,101306.56
2022-11-27T15:30:31.205Z,101258.22
2022-11-27T15:32:58.571Z,101297.97
2022-11-27T15:35:30.286Z,101290.13
2022-11-27T15:37:58.429Z,101295.38
2022-11-27T15:40:36.211Z,101304.81
2022-11-27T15:43:12.149Z,101287.75
2022-11-27T15:45:41.410Z,101175.63
2022-11-27T15:48:17.642Z,101204.06
2022-11-27T15:50:51.385Z,101301.94
2022-11-27T15:53:19.143Z,101290.63
2022-11-27T15:55:46.555Z,101130.63
2022-11-27T15:58:14.316Z,101300.09
2022-11-27T16:00:41.871Z,101307.31
2022-11-27T16:03:09.481Z,101306.28
2022-11-27T16:05:37.540Z,101314.81
2022-11-27T16:08:06.062Z,101320.00
2022-11-27T16:10:33.636Z,101313.88
2022-11-27T16:13:01.452Z,101301.81
2022-11-27T16:15:32.707Z,101246.31
2022-11-27T16:18:00.652Z,101312.28
2022-11-27T16:20:28.782Z,101320.09
2022-11-27T16:22:56.149Z,101215.59
2022-11-27T16:25:25.325Z,101316.44
2022-11-27T16:27:57.965Z,101312.94
2022-11-27T16:30:28.521Z,101259.06
2022-11-27T16:32:56.155Z,101312.22
2022-11-27T16:35:25.360Z,101325.28
2022-11-27T16:37:53.101Z,101222.81
2022-11-27T16:40:21.244Z,101326.19
2022-11-27T16:42:49.358Z,101331.50
2022-11-27T16:45:18.508Z,101327.38
2022-11-27T16:47:46.431Z,101124.16
2022-11-27T16:50:15.351Z,101310.34
2022-11-27T16:52:47.078Z,101332.28
2022-11-27T16:55:19.377Z,101338.84
2022-11-27T16:57:47.584Z,101223.88
2022-11-27T17:00:15.965Z,101330.63
2022-11-27T17:02:43.991Z,101338.47
2022-11-27T17:05:11.500Z,101342.63
2022-11-27T17:07:39.228Z,101341.53
2022-11-27T17:10:07.638Z,101248.22
2022-11-27T17:12:35.147Z,101329.56
2022-11-27T17:15:03.628Z,101300.78
2022-11-27T17:17:38.346Z,101296.34
2022-11-27T17:20:08.892Z,101323.91
2022-11-27T17:22:37.356Z,101221.69
2022-11-27T17:25:05.779Z,101342.22
2022-11-27T17:27:34.372Z,101328.41
2022-11-27T17:30:03.648Z,101319.56
2022-11-27T17:32:31.421Z,101329.44
2022-11-27T17:34:58.753Z,101334.34
2022-11-27T17:37:26.667Z,101329.19
2022-11-27T17:39:54.297Z,101321.44
2022-11-27T17:42:23.020Z,101314.88
2022-11-27T17:44:51.703Z,101313.34
2022-11-27T17:47:19.422Z,101270.06
2022-11-27T17:49:47.279Z,101326.72
2022-11-27T17:52:14.913Z,101334.44
2022-11-27T17:54:43.513Z,101338.75
2022-11-27T17:57:11.571Z,101315.81
2022-11-27T17:59:40.799Z,101337.88
2022-11-27T18:02:11.745Z,101340.28
2022-11-27T18:04:41.021Z,101335.22
2022-11-27T18:07:08.755Z,101282.38
2022-11-27T18:09:36.276Z,101277.38
2022-11-27T18:12:06.473Z,101234.91
2022-11-27T18:14:35.158Z,101314.13
2022-11-27T18:17:05.238Z,101340.97
2022-11-27T18:19:32.749Z,101341.44
2022-11-27T18:22:01.478Z,101232.88
2022-11-27T18:24:29.579Z,101337.16
2022-11-27T18:27:12.280Z,101345.78
2022-11-27T18:29:42.764Z,101349.78
2022-11-27T18:32:12.220Z,101317.56
2022-11-27T18:34:41.231Z,101341.47
2022-11-27T18:37:10.724Z,101346.13
2022-11-27T18:39:39.200Z,101272.78
2022-11-27T18:42:07.812Z,101348.66
2022-11-27T18:44:39.657Z,101351.34
2022-11-27T18:47:10.284Z,101342.91
2022-11-27T18:49:40.532Z,101338.97
2022-11-27T18:52:09.533Z,101347.56
2022-11-27T18:54:37.563Z,101241.22
2022-11-27T18:57:10.424Z,101260.50
2022-11-27T18:59:39.356Z,101267.56
2022-11-27T19:02:07.461Z,101341.25
2022-11-27T19:04:37.939Z,101341.09
2022-11-27T19:07:06.907Z,101350.38
2022-11-27T19:09:34.367Z,101349.44
2022-11-27T19:12:02.480Z,101331.88
2022-11-27T19:14:31.084Z,101351.19
2022-11-27T19:16:58.808Z,101354.00
2022-11-27T19:22:16.998Z,101356.50
2022-11-27T19:24:44.911Z,101356.44
2022-11-27T19:27:14.285Z,101364.09
2022-11-27T19:29:41.839Z,101254.44
2022-11-27T19:32:10.563Z,101348.94
2022-11-27T19:34:39.141Z,101287.56
2022-11-27T19:37:08.244Z,101353.44
2022-11-27T19:39:35.947Z,101334.06
2022-11-27T19:42:06.795Z,101288.22
2022-11-27T19:44:34.848Z,101364.28
2022-11-27T19:47:03.990Z,101361.31
2022-11-27T19:49:31.877Z,101364.56
2022-11-27T19:52:00.242Z,101356.38
2022-11-27T19:54:29.061Z,101290.09
2022-11-27T19:56:57.983Z,101304.63
2022-11-27T19:59:26.546Z,101272.09
2022-11-27T20:01:55.763Z,101356.34
2022-11-27T20:04:28.600Z,101360.00
2022-11-27T20:06:56.135Z,101354.00
2022-11-27T20:09:24.063Z,101366.25
2022-11-27T20:11:52.018Z,101366.03
2022-11-27T20:14:20.321Z,101368.69
2022-11-27T20:16:48.018Z,101350.00
2022-11-27T20:19:16.053Z,101310.16
2022-11-27T20:21:45.123Z,101190.84
2022-11-27T20:24:14.032Z,101263.22
2022-11-27T20:26:42.989Z,101368.25
2022-11-27T20:29:12.078Z,101303.66
2022-11-27T20:31:42.022Z,101385.56
2022-11-27T20:34:18.044Z,101387.97
2022-11-27T20:36:45.706Z,101385.47
2022-11-27T20:39:20.594Z,101377.06
2022-11-27T20:41:49.523Z,101378.03
2022-11-27T20:44:17.726Z,101224.31
2022-11-27T20:46:45.221Z,101356.44
2022-11-27T20:49:14.082Z,101402.81
2022-11-27T20:51:42.420Z,101345.75
2022-11-27T20:54:11.332Z,101323.44
2022-11-27T20:56:43.479Z,101320.69
2022-11-27T20:59:12.696Z,101391.22
2022-11-27T21:01:41.730Z,101382.63
2022-11-27T21:04:22.399Z,101408.69
2022-11-27T21:06:49.794Z,101388.94
2022-11-27T21:09:18.147Z,101387.75
2022-11-27T21:11:47.700Z,101379.72
2022-11-27T21:14:17.508Z,101391.91
2022-11-27T21:16:49.027Z,101379.50
2022-11-27T21:19:23.102Z,101312.31
2022-11-27T21:21:52.578Z,101407.72
2022-11-27T21:24:21.532Z,101277.72
2022-11-27T21:26:49.284Z,101398.16
2022-11-27T21:29:17.376Z,101402.06
2022-11-27T21:31:47.305Z,101407.16
2022-11-27T21:34:16.569Z,101231.84
2022-11-27T21:36:46.390Z,101301.28
2022-11-27T21:39:22.203Z,101388.06
2022-11-27T21:41:51.949Z,101382.41
2022-11-27T21:44:23.978Z,101394.81
2022-11-27T21:46:52.742Z,101402.00
2022-11-27T21:49:21.583Z,101349.78
2022-11-27T21:51:53.977Z,101388.41
2022-11-27T21:54:28.821Z,101400.81
2022-11-27T21:56:57.468Z,101314.13
2022-11-27T21:59:25.104Z,101403.34
2022-11-27T22:01:52.529Z,101398.91
2022-11-27T22:04:20.851Z,101406.88
2022-11-27T22:06:48.394Z,101408.03
2022-11-27T22:09:16.456Z,101383.38
2022-11-27T22:11:45.809Z,101414.88
2022-11-27T22:14:15.981Z,101408.59
2022-11-27T22:16:46.403Z,101410.34
2022-11-27T22:19:16.777Z,101406.06
2022-11-27T22:21:44.975Z,101403.47
2022-11-27T22:24:18.330Z,101404.09
2022-11-27T22:26:50.368Z,101413.56
2022-11-27T22:29:18.121Z,101401.41
2022-11-27T22:31:46.219Z,101399.56
2022-11-27T22:34:16.716Z,101246.00
2022-11-27T22:36:45.167Z,101423.81
2022-11-27T22:39:12.975Z,101400.88
2022-11-27T22:41:41.174Z,101402.19
2022-11-27T22:44:14.321Z,101408.41
2022-11-27T22:46:42.891Z,101406.50
2022-11-27T22:49:13.191Z,101409.75
2022-11-27T22:51:41.543Z,101407.72
2022-11-27T22:54:12.516Z,101411.28
2022-11-27T22:56:40.475Z,101407.94
2022-11-27T22:59:31.823Z,101413.59
2022-11-27T23:01:58.969Z,101266.94
2022-11-27T23:04:27.134Z,101422.06
2022-11-27T23:06:54.736Z,101427.25
2022-11-27T23:09:22.810Z,101424.72
2022-11-27T23:11:50.782Z,101400.09
2022-11-27T23:14:18.172Z,101426.47
2022-11-27T23:16:46.017Z,101424.66
2022-11-27T23:19:13.958Z,101347.28
2022-11-27T23:21:41.741Z,101429.34
2022-11-27T23:24:13.168Z,101373.75
2022-11-27T23:26:40.862Z,101423.31
2022-11-27T23:29:08.558Z,101425.47
2022-11-27T23:31:36.536Z,101416.75
2022-11-27T23:34:09.925Z,101427.41
2022-11-27T23:36:37.679Z,101432.81
2022-11-27T23:39:07.384Z,101431.19
2022-11-27T23:41:34.902Z,101438.06
2022-11-27T23:44:02.569Z,101438.94
2022-11-27T23:46:30.511Z,101433.06
2022-11-27T23:48:59.784Z,101284.06
2022-11-27T23:51:30.466Z,101428.59
2022-11-27T23:53:58.962Z,101365.50
2022-11-27T23:56:29.806Z,101443.47
2022-11-27T23:58:58.315Z,101444.72
